createdAt,value
2023-02-16T00:06:58.088Z,40.5
2023-02-16T00:10:57.628Z,53.4
2023-02-16T00:13:00.805Z,44.9
2023-02-16T00:15:00.651Z,44.3
2023-02-16T00:17:00.425Z,51.4
2023-02-16T00:19:00.288Z,40.3
2023-02-16T00:21:12.728Z,37.8
2023-02-16T00:22:59.930Z,38.9
2023-02-16T00:24:59.784Z,43.7
2023-02-16T00:27:02.910Z,49
2023-02-16T00:29:02.769Z,43.6
2023-02-16T00:31:03.252Z,36.6
2023-02-16T00:33:02.401Z,44.1
2023-02-16T00:35:02.350Z,32.7
2023-02-16T00:37:02.051Z,49.3
2023-02-16T00:39:01.904Z,50.3
2023-02-16T00:41:05.494Z,46.3
2023-02-16T00:43:05.014Z,61.1
2023-02-16T00:45:04.811Z,51.3
2023-02-16T00:46:06.556Z,44.8
2023-02-16T00:49:03.979Z,43.8
2023-02-16T00:50:06.148Z,48.8
2023-02-16T00:52:05.928Z,37.3
2023-02-16T00:54:09.254Z,42.5
2023-02-16T00:56:09.046Z,41.4
2023-02-16T00:58:08.881Z,40.2
2023-02-16T01:00:08.661Z,51.9
2023-02-16T01:02:08.533Z,40.8
2023-02-16T01:04:08.419Z,36.9
2023-02-16T01:06:08.235Z,58.9
2023-02-16T01:08:11.582Z,49.1
2023-02-16T01:12:11.302Z,47.2
2023-02-16T01:14:11.158Z,49.6
2023-02-16T01:18:10.880Z,42.5
2023-02-16T01:30:14.861Z,48.4
2023-02-16T01:32:14.735Z,44.9
2023-02-16T01:34:14.509Z,60.1
2023-02-16T01:36:17.647Z,30.3
2023-02-16T01:38:18.703Z,50
2023-02-16T01:40:17.188Z,45.7
2023-02-16T01:41:18.847Z,54.6
2023-02-16T01:43:18.721Z,47.4
2023-02-16T01:45:18.484Z,52
2023-02-16T01:47:18.346Z,50.9
2023-02-16T01:49:21.721Z,40.9
2023-02-16T01:51:21.567Z,46.3
2023-02-16T01:53:21.434Z,42
2023-02-16T01:55:21.229Z,47.8
2023-02-16T01:57:21.128Z,53.5
2023-02-16T01:59:21.017Z,52.3
2023-02-16T02:01:20.919Z,56.7
2023-02-16T02:03:24.080Z,57.5
2023-02-16T02:05:23.934Z,49.3
2023-02-16T02:17:26.392Z,40.9
2023-02-16T02:21:25.933Z,53.9
2023-02-16T02:23:25.818Z,53.9
2023-02-16T02:27:25.568Z,54.4
2023-02-16T02:29:25.438Z,49.5
2023-02-16T02:35:28.398Z,48.2
2023-02-16T02:37:50.426Z,61.4
2023-02-16T02:41:50.034Z,53.6
2023-02-16T02:47:52.989Z,60.9
2023-02-16T02:51:52.619Z,34.6
2023-02-16T02:53:52.481Z,45.3
2023-02-16T02:55:52.287Z,59.1
2023-02-16T02:57:55.959Z,49.8
2023-02-16T02:59:55.741Z,52.4
2023-02-16T03:01:55.567Z,46
2023-02-16T03:04:08.133Z,40
2023-02-16T03:05:55.252Z,51.7
2023-02-16T03:07:55.101Z,42.6
2023-02-16T03:09:54.963Z,53.9
2023-02-16T03:11:58.357Z,48.7
2023-02-16T03:13:58.104Z,60.2
2023-02-16T03:15:57.910Z,54.6
2023-02-16T03:17:57.708Z,48.9
2023-02-16T03:19:57.486Z,48.2
2023-02-16T03:21:57.259Z,42.6
2023-02-16T03:23:57.110Z,41.2
2023-02-16T03:26:00.273Z,45.6
2023-02-16T03:28:00.141Z,30.4
2023-02-16T03:29:59.954Z,51
2023-02-16T03:31:01.921Z,41.2
2023-02-16T03:35:01.308Z,49.5
2023-02-16T03:45:03.805Z,48.5
2023-02-16T03:49:03.428Z,50.2
2023-02-16T03:53:07.075Z,45.7
2023-02-16T03:57:31.020Z,46.8
2023-02-16T03:59:06.250Z,45.1
2023-02-16T04:01:06.568Z,52.6
2023-02-16T04:03:05.900Z,45.3
2023-02-16T04:05:05.731Z,36.3
2023-02-16T04:07:08.999Z,41.9
2023-02-16T04:09:08.845Z,45.1
2023-02-16T04:11:08.624Z,37.4
2023-02-16T04:13:13.930Z,41
2023-02-16T04:15:08.337Z,35.2
2023-02-16T04:17:08.226Z,38.4
2023-02-16T04:19:08.065Z,41.9
2023-02-16T04:21:11.309Z,50.2
2023-02-16T04:26:12.590Z,42
2023-02-16T04:28:12.434Z,37.9
2023-02-16T04:34:30.147Z,50.5
2023-02-16T04:38:15.145Z,45.3
2023-02-16T04:40:14.944Z,44.7
2023-02-16T04:42:14.788Z,46.3
2023-02-16T04:44:14.610Z,44.6
2023-02-16T04:48:17.613Z,51.6
2023-02-16T04:50:17.462Z,43.4
2023-02-16T04:52:17.217Z,39.1
2023-02-16T04:54:17.046Z,44.1
2023-02-16T04:56:16.833Z,46.2
2023-02-16T04:58:16.648Z,43.6
2023-02-16T05:00:16.440Z,40
2023-02-16T05:02:19.754Z,46.3
2023-02-16T05:04:19.586Z,47.5
2023-02-16T05:06:19.304Z,47.6
2023-02-16T05:10:19.007Z,39.5
2023-02-16T05:12:18.835Z,43.2
2023-02-16T05:21:23.237Z,49.4
2023-02-16T05:23:23.107Z,59.9
2023-02-16T05:25:22.920Z,48.1
2023-02-16T05:27:22.771Z,45.7
2023-02-16T05:29:26.072Z,41.5
2023-02-16T05:31:25.912Z,42.7
2023-02-16T05:39:25.046Z,46.3
2023-02-16T05:41:24.869Z,43.1
2023-02-16T05:43:28.107Z,53.5
2023-02-16T05:45:27.888Z,40.6
2023-02-16T05:47:27.669Z,44.7
2023-02-16T05:49:27.424Z,47.9
2023-02-16T05:51:27.252Z,41.6
2023-02-16T05:53:27.035Z,42.8
2023-02-16T05:55:36.285Z,43.6
2023-02-16T05:58:53.829Z,44.3
2023-02-16T05:59:29.944Z,49.5
2023-02-16T06:01:29.733Z,48.8
2023-02-16T06:03:29.583Z,36.7
2023-02-16T06:05:29.355Z,46.6
2023-02-16T06:07:29.230Z,47.3
2023-02-16T06:09:29.067Z,47.4
2023-02-16T06:11:32.419Z,53.8
2023-02-16T06:13:32.204Z,48.9
2023-02-16T06:15:32.025Z,49.7
2023-02-16T06:17:53.850Z,44.8
2023-02-16T06:19:53.580Z,45.5
2023-02-16T06:21:53.386Z,63.1
2023-02-16T06:23:56.628Z,53.7
2023-02-16T06:25:56.391Z,50.7
2023-02-16T06:27:56.230Z,41.8
2023-02-16T06:29:56.126Z,40.8
2023-02-16T06:31:55.958Z,45.6
2023-02-16T06:33:55.711Z,47.2
2023-02-16T06:35:55.486Z,48
2023-02-16T06:37:58.715Z,46.1
2023-02-16T06:39:58.550Z,53.9
2023-02-16T06:41:58.287Z,49.9
2023-02-16T06:43:58.050Z,45.4
2023-02-16T06:45:57.902Z,43.4
2023-02-16T06:47:57.682Z,48.7
2023-02-16T06:49:57.499Z,51.7
2023-02-16T06:52:00.760Z,47.1
2023-02-16T06:54:00.615Z,51.2
2023-02-16T06:58:00.210Z,45.8
2023-02-16T07:00:00.109Z,40.3
2023-02-16T07:01:59.910Z,52.3
2023-02-16T07:03:59.799Z,49.8
2023-02-16T07:08:02.781Z,58.1
2023-02-16T07:10:02.618Z,48.5
2023-02-16T07:11:04.647Z,57.7
2023-02-16T07:15:05.284Z,44
2023-02-16T07:19:08.306Z,48.7
2023-02-16T07:21:08.137Z,51.9
2023-02-16T07:23:07.897Z,53.1
2023-02-16T07:25:07.766Z,43
2023-02-16T07:27:07.513Z,43.2
2023-02-16T07:29:17.190Z,57.1
2023-02-16T07:31:07.595Z,53.9
2023-02-16T07:33:10.601Z,47.7
2023-02-16T07:35:10.426Z,48.3
2023-02-16T07:37:10.224Z,53.8
2023-02-16T07:39:10.031Z,46.3
2023-02-16T07:41:10.510Z,47
2023-02-16T07:43:09.717Z,48.8
2023-02-16T07:45:09.583Z,63.4
2023-02-16T07:47:12.886Z,54.4
2023-02-16T07:49:17.753Z,56.9
2023-02-16T07:53:13.042Z,49.3
2023-02-16T07:55:12.720Z,40.6
2023-02-16T07:57:12.494Z,46
2023-02-16T08:03:15.502Z,50.4
2023-02-16T08:05:15.113Z,63
2023-02-16T08:06:16.831Z,51.9
2023-02-16T08:08:16.651Z,52.9
2023-02-16T08:12:16.241Z,59
2023-02-16T08:14:19.494Z,42.9
2023-02-16T08:16:19.347Z,43.1
2023-02-16T08:18:19.102Z,53.4
2023-02-16T08:24:18.540Z,49.1
2023-02-16T08:26:18.322Z,57.8
2023-02-16T08:28:21.519Z,51
2023-02-16T08:30:21.290Z,48.3
2023-02-16T08:32:21.084Z,43
2023-02-16T08:34:20.800Z,41.3
2023-02-16T08:36:20.677Z,44
2023-02-16T08:38:20.496Z,47.4
2023-02-16T08:40:20.264Z,41.8
2023-02-16T08:42:23.397Z,49.8
2023-02-16T08:46:23.115Z,35.2
2023-02-16T08:58:25.304Z,44.8
2023-02-16T09:00:25.091Z,44
2023-02-16T09:01:26.793Z,46.8
2023-02-16T09:05:26.253Z,42
2023-02-16T09:09:29.436Z,48.2
2023-02-16T09:11:29.207Z,54.6
2023-02-16T09:13:28.946Z,42.2
2023-02-16T09:15:28.814Z,52
2023-02-16T09:17:28.642Z,45
2023-02-16T09:19:28.397Z,49
2023-02-16T09:23:31.457Z,52.8
2023-02-16T09:25:31.202Z,56.7
2023-02-16T09:27:30.948Z,42.3
2023-02-16T09:29:30.685Z,44.9
2023-02-16T09:33:30.192Z,40.5
2023-02-16T09:35:30.013Z,24.6
2023-02-16T09:37:33.951Z,44.2
2023-02-16T09:39:32.926Z,50.9
2023-02-16T09:41:32.666Z,46.2
2023-02-16T09:43:32.386Z,51.1
2023-02-16T09:45:32.229Z,58.2
2023-02-16T09:47:35.902Z,37.6
2023-02-16T09:49:31.686Z,54.1
2023-02-16T09:53:34.675Z,38.4
2023-02-16T09:57:56.214Z,41.5
2023-02-16T09:59:55.950Z,44.5
2023-02-16T10:15:57.514Z,40.5
2023-02-16T10:18:00.720Z,54.8
2023-02-16T10:20:00.469Z,46.2
2023-02-16T10:22:00.307Z,46.9
2023-02-16T10:23:59.965Z,53.3
2023-02-16T10:25:59.697Z,64
2023-02-16T10:28:51.671Z,52.9
2023-02-16T10:29:59.181Z,49.6
2023-02-16T10:32:02.402Z,61.6
2023-02-16T10:34:02.014Z,46
2023-02-16T10:36:01.816Z,50.7
2023-02-16T10:38:01.607Z,30.5
2023-02-16T10:40:01.408Z,56.1
2023-02-16T10:42:01.241Z,47.7
2023-02-16T10:44:01.062Z,45.6
2023-02-16T10:46:04.349Z,63.2
2023-02-16T10:48:04.038Z,56.4
2023-02-16T10:50:03.783Z,66.9
2023-02-16T10:55:04.891Z,64.5
2023-02-16T11:02:38.316Z,64.7
2023-02-16T11:09:06.743Z,57.3
2023-02-16T11:13:09.783Z,65.8
2023-02-16T11:15:09.574Z,53.4
2023-02-16T11:17:09.349Z,65.9
2023-02-16T11:19:09.106Z,75.2
2023-02-16T11:21:08.822Z,63.2
2023-02-16T11:25:19.647Z,59.7
2023-02-16T11:27:11.594Z,66.2
2023-02-16T11:29:11.433Z,63
2023-02-16T11:31:11.371Z,62.5
2023-02-16T11:34:18.724Z,63.5
2023-02-16T11:35:10.799Z,60.4
2023-02-16T11:37:10.615Z,76
2023-02-16T11:39:11.213Z,63.2
2023-02-16T11:41:13.537Z,86.8
2023-02-16T11:45:13.153Z,79.2
2023-02-16T11:48:14.466Z,78.8
2023-02-16T11:50:14.289Z,69.4
2023-02-16T11:54:17.174Z,77.5
2023-02-16T11:58:16.688Z,75.4
2023-02-16T12:00:16.551Z,83.3
2023-02-16T12:06:15.771Z,69
2023-02-16T12:08:18.912Z,63.8
2023-02-16T12:10:18.647Z,67.8
2023-02-16T12:12:18.397Z,57.2
2023-02-16T12:14:18.127Z,60.2
2023-02-16T12:16:17.904Z,61.1
2023-02-16T12:18:17.608Z,59.9
2023-02-16T12:20:17.368Z,58.1
2023-02-16T12:22:20.494Z,55.6
2023-02-16T12:24:20.254Z,49.3
2023-02-16T12:26:19.995Z,49.6
2023-02-16T12:28:19.693Z,52.7
2023-02-16T12:30:19.456Z,60.7
2023-02-16T12:32:19.154Z,60.6
2023-02-16T12:34:18.870Z,54.9
2023-02-16T12:40:21.484Z,36.9
2023-02-16T12:41:23.064Z,51.9
2023-02-16T12:43:22.796Z,56.2
2023-02-16T12:45:22.498Z,56.2
2023-02-16T12:47:22.223Z,48.5
2023-02-16T12:49:25.379Z,51.6
2023-02-16T12:51:25.086Z,62.4
2023-02-16T12:53:24.830Z,43.3
2023-02-16T12:55:24.563Z,51.1
2023-02-16T12:57:24.296Z,54
2023-02-16T12:59:25.534Z,54.5
2023-02-16T13:01:25.239Z,55.1
2023-02-16T13:03:28.313Z,45.6
2023-02-16T13:05:27.968Z,63.1
2023-02-16T13:07:27.670Z,49.2
2023-02-16T13:09:27.342Z,48.6
2023-02-16T13:11:27.146Z,37.4
2023-02-16T13:13:26.752Z,44.4
2023-02-16T13:23:28.597Z,43.4
2023-02-16T13:25:28.432Z,43.4
2023-02-16T13:27:27.991Z,46.6
2023-02-16T13:29:27.671Z,39.6
2023-02-16T13:31:30.820Z,35.7
2023-02-16T13:33:30.414Z,40.3
2023-02-16T13:35:30.136Z,43.2
2023-02-16T13:39:51.630Z,39.6
2023-02-16T13:41:51.287Z,47.2
2023-02-16T13:43:54.422Z,32.1
2023-02-16T13:45:54.171Z,26.1
2023-02-16T13:47:53.785Z,35.5
2023-02-16T13:49:53.418Z,45.3
2023-02-16T13:51:53.144Z,31.2
2023-02-16T13:53:52.827Z,35.5
2023-02-16T13:55:52.441Z,39.7
2023-02-16T13:57:55.556Z,41.5
2023-02-16T13:59:55.247Z,34
2023-02-16T14:01:54.902Z,45.2
2023-02-16T14:03:54.632Z,47.2
2023-02-16T14:05:54.330Z,35.8
2023-02-16T14:07:53.961Z,32.8
2023-02-16T14:09:53.666Z,39.5
2023-02-16T14:11:56.749Z,38.8
2023-02-16T14:13:56.421Z,38.4
2023-02-16T14:17:55.817Z,38
2023-02-16T14:21:55.175Z,45.1
2023-02-16T14:25:57.912Z,29.6
2023-02-16T14:27:57.586Z,31.2
2023-02-16T14:30:58.898Z,27
2023-02-16T14:32:58.528Z,36.4
2023-02-16T14:34:58.196Z,33
2023-02-16T14:36:57.842Z,29.9
2023-02-16T14:39:00.899Z,30.4
2023-02-16T14:41:00.579Z,42.4
2023-02-16T14:43:00.246Z,41.2
2023-02-16T14:44:59.932Z,32
2023-02-16T14:46:59.628Z,28.2
2023-02-16T14:48:59.286Z,32.8
2023-02-16T14:50:58.977Z,31.7
2023-02-16T14:53:02.082Z,33.8
2023-02-16T14:55:01.738Z,30.4
2023-02-16T14:57:01.437Z,26.3
2023-02-16T14:59:01.078Z,39.3
2023-02-16T15:05:00.133Z,26.1
2023-02-16T15:07:03.300Z,24.1
2023-02-16T15:09:02.939Z,27.7
2023-02-16T15:11:02.630Z,38
2023-02-16T15:13:02.333Z,29.9
2023-02-16T15:15:02.096Z,32.1
2023-02-16T15:17:01.728Z,31.3
2023-02-16T15:19:01.408Z,25.1
2023-02-16T15:21:04.499Z,32.1
2023-02-16T15:23:04.203Z,26.6
2023-02-16T15:25:03.894Z,29.6
2023-02-16T15:30:04.981Z,32.7
2023-02-16T15:32:04.653Z,28.4
2023-02-16T15:44:06.068Z,26.8
2023-02-16T15:46:06.203Z,36.1
2023-02-16T15:54:07.853Z,30.6
2023-02-16T15:56:07.632Z,25.4
2023-02-16T15:58:07.248Z,32.4
2023-02-16T16:00:06.957Z,27.7
2023-02-16T16:02:10.158Z,18
2023-02-16T16:04:09.675Z,34.8
2023-02-16T16:06:09.392Z,42.7
2023-02-16T16:08:09.049Z,26.6
2023-02-16T16:10:08.775Z,33
2023-02-16T16:16:11.270Z,29.5
2023-02-16T16:18:10.945Z,46
2023-02-16T16:20:10.617Z,30.1
2023-02-16T16:21:12.145Z,28.9
2023-02-16T16:25:11.525Z,29
2023-02-16T16:29:14.285Z,34.3
2023-02-16T16:31:14.068Z,25.6
2023-02-16T16:35:13.414Z,33.3
2023-02-16T16:37:13.095Z,24.9
2023-02-16T16:39:12.775Z,29.8
2023-02-16T16:41:12.473Z,28.5
2023-02-16T16:43:15.608Z,36.8
2023-02-16T16:45:15.266Z,32.7
2023-02-16T16:49:14.616Z,30.3
2023-02-16T16:51:14.335Z,30.9
2023-02-16T16:57:16.888Z,37.8
2023-02-16T16:59:16.479Z,31.6
2023-02-16T17:07:15.296Z,39.1
2023-02-16T17:09:16.789Z,25.3
2023-02-16T17:15:17.537Z,45.3
2023-02-16T17:17:33.046Z,40.7
2023-02-16T17:19:32.683Z,56.7
2023-02-16T17:25:35.181Z,49
2023-02-16T17:29:34.579Z,43.7
2023-02-16T17:31:34.470Z,40.6
2023-02-16T17:33:33.980Z,39.2
2023-02-16T17:35:33.673Z,34.7
2023-02-16T17:37:36.748Z,35.1
2023-02-16T17:39:36.451Z,43.4
2023-02-16T17:41:36.125Z,42
2023-02-16T17:43:35.844Z,29.1
2023-02-16T17:45:35.521Z,29.5
2023-02-16T17:47:35.216Z,34.7
2023-02-16T17:49:34.903Z,26.9
2023-02-16T17:51:38.005Z,39.2
2023-02-16T17:53:37.704Z,34.9
2023-02-16T17:55:37.432Z,48.7
2023-02-16T17:57:37.112Z,35.4
2023-02-16T17:59:36.769Z,44.5
2023-02-16T18:01:36.498Z,40.6
2023-02-16T18:03:36.191Z,32.3
2023-02-16T18:10:40.711Z,37.9
2023-02-16T18:12:40.381Z,32.9
2023-02-16T18:14:40.091Z,31.9
2023-02-16T18:16:39.873Z,28
2023-02-16T18:18:42.873Z,32.4
2023-02-16T18:20:42.562Z,30.1
2023-02-16T18:22:42.363Z,31.9
2023-02-16T18:24:42.112Z,32.3
2023-02-16T18:26:41.643Z,35.7
2023-02-16T18:28:41.346Z,35.4
2023-02-16T18:32:51.552Z,27.3
2023-02-16T18:34:43.820Z,28.9
2023-02-16T18:36:43.507Z,49.3
2023-02-16T18:38:43.182Z,40.8
2023-02-16T18:40:42.873Z,35
2023-02-16T18:42:42.590Z,37.2
2023-02-16T18:48:48.048Z,43.2
2023-02-16T18:50:47.777Z,62.7
2023-02-16T18:52:47.984Z,40.8
2023-02-16T18:54:47.124Z,33.7
2023-02-16T18:56:46.834Z,40.4
2023-02-16T19:05:50.561Z,52.3
2023-02-16T19:09:49.931Z,38.4
2023-02-16T19:13:52.724Z,36.7
2023-02-16T19:17:52.963Z,33.5
2023-02-16T19:19:52.641Z,45.2
2023-02-16T19:21:52.344Z,30.3
2023-02-16T19:27:54.808Z,40
2023-02-16T19:29:54.546Z,40.1
2023-02-16T19:31:54.383Z,37.5
2023-02-16T19:33:53.924Z,41.2
2023-02-16T19:35:53.603Z,33.4
2023-02-16T19:37:53.337Z,34.6
2023-02-16T19:39:53.047Z,33.3
2023-02-16T19:41:56.140Z,36.8
2023-02-16T19:43:55.828Z,34.2
2023-02-16T19:45:55.535Z,37
2023-02-16T19:47:55.220Z,26.1
2023-02-16T19:49:54.900Z,37.6
2023-02-16T19:51:54.633Z,35.5
2023-02-16T19:53:54.318Z,40
2023-02-16T19:55:57.435Z,30.3
2023-02-16T19:57:57.122Z,33.4
2023-02-16T20:00:58.364Z,31.6
2023-02-16T20:02:58.056Z,34.4
2023-02-16T20:04:57.754Z,42.1
2023-02-16T20:06:57.462Z,30.8
2023-02-16T20:09:00.583Z,43.4
2023-02-16T20:14:59.665Z,51.2
2023-02-16T20:16:59.387Z,36.5
2023-02-16T20:20:58.763Z,33
2023-02-16T20:23:01.853Z,39.5
2023-02-16T20:29:00.956Z,33.9
2023-02-16T20:31:00.741Z,33.4
2023-02-16T20:33:00.325Z,30.2
2023-02-16T20:35:00.001Z,31.9
2023-02-16T20:37:03.090Z,42.9
2023-02-16T20:39:02.756Z,31.7
2023-02-16T20:43:47.765Z,37.5
2023-02-16T20:47:38.548Z,32.3
2023-02-16T20:49:01.293Z,41.2
2023-02-16T20:51:04.347Z,28.5
2023-02-16T20:53:04.066Z,34.4
2023-02-16T20:55:03.757Z,29.8
2023-02-16T20:57:27.299Z,28.9
2023-02-16T20:59:25.128Z,30.7
2023-02-16T21:05:27.583Z,21.4
2023-02-16T21:07:27.273Z,26.4
2023-02-16T21:11:26.680Z,27.6
2023-02-16T21:13:26.363Z,36.4
2023-02-16T21:15:26.055Z,33.5
2023-02-16T21:17:29.105Z,28.3
2023-02-16T21:19:28.842Z,28.1
2023-02-16T21:21:28.542Z,27.5
2023-02-16T21:23:28.225Z,21.3
2023-02-16T21:25:27.917Z,34.9
2023-02-16T21:29:27.302Z,24.6
2023-02-16T21:31:30.540Z,28.5
2023-02-16T21:33:30.078Z,28.5
2023-02-16T21:35:29.748Z,27.6
2023-02-16T21:37:29.427Z,36.4
2023-02-16T21:39:29.166Z,28.7
2023-02-16T21:41:28.830Z,38.6
2023-02-16T21:43:28.563Z,32.5
2023-02-16T21:45:31.684Z,33.9
2023-02-16T21:47:31.349Z,27.6
2023-02-16T21:49:31.007Z,27.8
2023-02-16T21:50:32.590Z,24.2
2023-02-16T21:52:32.561Z,21.1
2023-02-16T21:54:31.943Z,39.2
2023-02-16T21:56:31.637Z,28.9
2023-02-16T21:58:34.760Z,31.6
2023-02-16T22:04:33.817Z,31
2023-02-16T22:06:33.527Z,32.9
2023-02-16T22:08:33.205Z,28.9
2023-02-16T22:10:32.883Z,27.4
2023-02-16T22:12:35.967Z,25.5
2023-02-16T22:14:35.677Z,26.2
2023-02-16T22:20:34.740Z,16.8
2023-02-16T22:22:34.402Z,22.6
2023-02-16T22:24:34.093Z,28.6
2023-02-16T22:26:37.164Z,23.4
2023-02-16T22:28:36.920Z,24.9
2023-02-16T22:30:36.552Z,23.9
2023-02-16T22:32:36.228Z,27.7
2023-02-16T22:34:35.914Z,17.6
2023-02-16T22:36:35.614Z,22.4
2023-02-16T22:40:38.430Z,20.1
2023-02-16T22:42:38.106Z,21.6
2023-02-16T22:44:37.827Z,27.9
2023-02-16T22:47:39.054Z,21.9
2023-02-16T22:55:41.233Z,23
2023-02-16T22:57:41.068Z,18.3
2023-02-16T22:59:40.628Z,22.8
2023-02-16T23:01:40.318Z,20.4
2023-02-16T23:03:40.007Z,15.3
2023-02-16T23:05:39.702Z,14.8
2023-02-16T23:07:42.834Z,18.8
2023-02-16T23:09:42.450Z,18.6
2023-02-16T23:15:41.552Z,21.9
2023-02-16T23:17:41.258Z,15.7
2023-02-16T23:19:40.940Z,13.9
2023-02-16T23:21:44.062Z,17.5
2023-02-16T23:23:43.729Z,20.9
2023-02-16T23:27:43.131Z,12.7
2023-02-16T23:29:42.805Z,13
2023-02-16T23:31:42.546Z,11.6
2023-02-16T23:37:44.963Z,15.5
2023-02-16T23:39:44.650Z,19.6
2023-02-16T23:40:46.176Z,18.1
2023-02-16T23:42:45.890Z,11.8
2023-02-16T23:44:45.574Z,18.6
2023-02-16T23:46:45.298Z,16.3
2023-02-16T23:48:48.353Z,16.1
2023-02-16T23:50:48.078Z,19
2023-02-16T23:52:47.759Z,18.2
2023-02-16T23:58:46.891Z,14.8
